Time;durP1;ratioP1;P1;durP2;ratioP2;P2;SDS_P1;SDS_P2;PMS_P1;PMS_P2;Temp;Humidity;BMP_temperature;BMP_pressure;BME280_temperature;BME280_humidity;BME280_pressure;Samples;Min_cycle;Max_cycle;Signal;HPM_P1;HPM_P2
2022/12/12 00:00:13;;;;;;;45.27;18.70;;;-0.60;84.90;;;;;;5037335;28;20244;-73
2022/12/12 00:02:40;;;;;;;49.47;19.42;;;-0.60;84.60;;;;;;5032509;28;20208;-73
2022/12/12 00:05:07;;;;;;;61.63;21.33;;;-0.60;84.60;;;;;;5031640;28;20897;-71
2022/12/12 00:07:33;;;;;;;47.13;18.70;;;-0.60;84.70;;;;;;5030152;28;21022;-71
2022/12/12 00:09:59;;;;;;;49.57;20.50;;;-0.60;84.60;;;;;;5037772;28;20205;-73
2022/12/12 00:12:25;;;;;;;42.72;18.00;;;-0.60;84.60;;;;;;5039393;28;20208;-72
2022/12/12 00:14:51;;;;;;;49.70;20.58;;;-0.60;84.30;;;;;;5037268;28;20181;-72
2022/12/12 00:17:16;;;;;;;39.87;17.43;;;-0.60;84.00;;;;;;5035712;28;20192;-71
2022/12/12 00:19:42;;;;;;;45.33;18.23;;;-0.70;84.00;;;;;;5029031;28;20900;-72
2022/12/12 00:22:08;;;;;;;44.03;17.60;;;-0.70;84.10;;;;;;5030757;28;20205;-72
2022/12/12 00:24:33;;;;;;;45.47;17.45;;;-0.60;83.80;;;;;;5034128;28;20190;-72
2022/12/12 00:26:59;;;;;;;47.53;19.80;;;-0.70;83.60;;;;;;5021703;28;20685;-72
2022/12/12 00:29:25;;;;;;;56.10;17.50;;;-0.80;83.60;;;;;;5025782;28;20221;-73
2022/12/12 00:31:50;;;;;;;47.03;20.50;;;-0.80;83.80;;;;;;5024243;28;20205;-73
2022/12/12 00:34:16;;;;;;;36.97;15.97;;;-0.80;83.70;;;;;;5025809;28;20272;-72
2022/12/12 00:36:41;;;;;;;38.00;17.00;;;-0.80;83.80;;;;;;5021058;28;20181;-73
2022/12/12 00:39:07;;;;;;;44.40;17.80;;;-0.80;83.40;;;;;;5025735;28;20190;-73
2022/12/12 00:41:35;;;;;;;40.33;16.70;;;-0.80;83.40;;;;;;5020754;28;20200;-73
2022/12/12 00:44:00;;;;;;;39.25;17.38;;;-0.70;83.80;;;;;;5024695;28;20190;-71
2022/12/12 00:46:26;;;;;;;36.43;16.27;;;-0.80;83.80;;;;;;5023212;28;20196;-70
2022/12/12 00:48:56;;;;;;;44.63;17.97;;;-0.80;83.80;;;;;;5021822;28;20186;-72
2022/12/12 00:51:23;;;;;;;39.90;16.92;;;-0.80;83.40;;;;;;5023038;28;20219;-73
2022/12/12 00:53:49;;;;;;;46.55;17.13;;;-0.70;83.40;;;;;;5024846;28;20186;-73
2022/12/12 00:56:17;;;;;;;35.33;14.63;;;-0.70;83.60;;;;;;5020115;28;20659;-71
2022/12/12 00:58:42;;;;;;;40.20;17.42;;;-0.70;83.40;;;;;;5023625;28;20185;-74
2022/12/12 01:01:10;;;;;;;43.67;17.07;;;-0.70;83.10;;;;;;5025152;28;20213;-72
2022/12/12 01:03:38;;;;;;;45.20;18.30;;;-0.70;82.80;;;;;;5018757;28;20222;-74
2022/12/12 01:06:04;;;;;;;34.53;15.45;;;-0.80;82.40;;;;;;5019365;28;20188;-72
2022/12/12 01:08:30;;;;;;;35.00;15.30;;;-0.80;82.70;;;;;;5017220;28;20181;-72
2022/12/12 01:10:56;;;;;;;36.37;14.77;;;-0.80;82.80;;;;;;5027254;28;20217;-73
2022/12/12 01:13:22;;;;;;;39.20;16.05;;;-0.80;82.70;;;;;;5023617;28;20186;-73
2022/12/12 01:15:48;;;;;;;41.97;15.97;;;-0.80;82.80;;;;;;5022952;28;20320;-73
2022/12/12 01:18:14;;;;;;;36.92;15.13;;;-0.70;83.10;;;;;;5022153;28;20428;-73
2022/12/12 01:20:40;;;;;;;40.33;16.23;;;-0.70;82.70;;;;;;5025557;28;20720;-72
2022/12/12 01:23:06;;;;;;;38.53;16.47;;;-0.70;82.40;;;;;;5025900;28;20193;-73
2022/12/12 01:25:31;;;;;;;33.20;14.40;;;-0.70;82.20;;;;;;5029052;28;20489;-71
2022/12/12 01:27:58;;;;;;;38.30;16.37;;;-0.80;82.20;;;;;;5034748;28;20192;-71
2022/12/12 01:30:24;;;;;;;40.25;15.90;;;-0.70;82.40;;;;;;5030647;28;20216;-71
2022/12/12 01:32:49;;;;;;;38.30;15.27;;;-0.70;82.40;;;;;;5029728;28;20577;-73
2022/12/12 01:35:15;;;;;;;34.10;15.73;;;-0.80;82.70;;;;;;5022945;28;20185;-72
2022/12/12 01:37:41;;;;;;;41.20;15.30;;;-0.70;82.70;;;;;;5020448;28;20268;-71
2022/12/12 01:40:13;;;;;;;32.07;15.40;;;-0.70;83.10;;;;;;5019517;28;20205;-72
2022/12/12 01:42:38;;;;;;;36.42;13.55;;;-0.70;82.80;;;;;;5019066;28;20188;-72
2022/12/12 01:45:05;;;;;;;33.43;13.10;;;-0.80;82.70;;;;;;5026945;28;20640;-72
2022/12/12 01:47:30;;;;;;;32.42;13.38;;;-0.80;82.10;;;;;;5028884;28;20204;-71
2022/12/12 01:50:08;;;;;;;29.37;12.43;;;-0.80;81.70;;;;;;5025784;28;20753;-72
2022/12/12 01:52:41;;;;;;;25.90;12.43;;;-0.80;81.20;;;;;;5015560;28;20193;-73
2022/12/12 01:55:12;;;;;;;26.33;12.02;;;-0.70;80.90;;;;;;5024601;28;20571;-72
2022/12/12 01:57:43;;;;;;;29.63;14.45;;;-0.80;80.90;;;;;;5020325;28;20173;-71
2022/12/12 02:00:10;;;;;;;32.35;14.13;;;-0.80;81.10;;;;;;5026411;28;20582;-73
2022/12/12 02:02:38;;;;;;;35.85;14.30;;;-0.90;81.50;;;;;;5026010;28;20185;-71
2022/12/12 02:05:12;;;;;;;40.63;16.00;;;-0.90;82.10;;;;;;5019771;28;20198;-72
2022/12/12 02:07:37;;;;;;;37.15;15.63;;;-1.00;82.20;;;;;;5016881;28;20181;-71
2022/12/12 02:10:03;;;;;;;37.23;15.70;;;-1.00;83.00;;;;;;5016025;28;20209;-74
2022/12/12 02:12:29;;;;;;;37.85;16.10;;;-1.10;83.30;;;;;;5024499;28;20209;-72
2022/12/12 02:14:55;;;;;;;36.13;16.03;;;-1.00;83.60;;;;;;5014234;28;20656;-71
2022/12/12 02:17:38;;;;;;;38.37;16.30;;;-1.00;83.60;;;;;;5021747;28;20575;-71
2022/12/12 02:20:20;;;;;;;35.22;13.77;;;-1.00;83.70;;;;;;5024769;28;20209;-71
2022/12/12 02:23:07;;;;;;;38.85;16.33;;;-1.20;83.60;;;;;;5025384;28;20252;-72
2022/12/12 02:26:10;;;;;;;37.47;15.00;;;-1.20;84.00;;;;;;5027758;28;20885;-72
2022/12/12 02:29:10;;;;;;;32.63;14.77;;;-1.40;84.10;;;;;;5025592;28;20254;-72
2022/12/12 02:31:47;;;;;;;37.83;14.48;;;-1.40;84.90;;;;;;5026701;28;20227;-72
2022/12/12 02:34:29;;;;;;;39.20;15.02;;;-1.60;85.00;;;;;;5023804;28;20192;-71
2022/12/12 02:37:07;;;;;;;37.55;13.93;;;-1.70;85.30;;;;;;5036322;28;20249;-71
2022/12/12 02:39:46;;;;;;;38.20;14.98;;;-1.80;85.60;;;;;;5042973;28;20580;-72
2022/12/12 02:42:21;;;;;;;41.50;14.05;;;-1.80;86.00;;;;;;5037979;28;20188;-72
2022/12/12 02:45:08;;;;;;;36.95;14.05;;;-1.80;86.20;;;;;;5031628;28;20615;-74
2022/12/12 02:47:41;;;;;;;38.45;14.98;;;-1.90;86.30;;;;;;5018981;28;20193;-73
2022/12/12 02:50:18;;;;;;;39.80;14.07;;;-1.80;86.30;;;;;;5036068;28;20216;-72
2022/12/12 02:52:45;;;;;;;32.97;13.48;;;-1.70;86.00;;;;;;5028588;28;20206;-72
2022/12/12 02:55:11;;;;;;;29.05;13.75;;;-1.70;85.70;;;;;;5038556;28;20181;-72
2022/12/12 02:57:40;;;;;;;37.83;14.67;;;-1.80;85.50;;;;;;5035496;28;20181;-73
2022/12/12 03:00:10;;;;;;;31.20;13.32;;;-1.90;85.50;;;;;;5036638;28;20289;-71
2022/12/12 03:02:45;;;;;;;32.63;13.80;;;-1.90;85.70;;;;;;5027956;28;20220;-73
2022/12/12 03:08:35;;;;;;;38.35;14.75;;;-2.00;86.00;;;;;;5001204;28;20691;-70
2022/12/12 03:11:06;;;;;;;34.65;14.80;;;-2.10;86.20;;;;;;5017251;28;20213;-71
2022/12/12 03:13:50;;;;;;;35.42;13.65;;;-2.20;86.20;;;;;;5022230;28;20257;-71
2022/12/12 03:16:27;;;;;;;34.00;14.80;;;-2.20;86.60;;;;;;5022756;28;20192;-73
2022/12/12 03:19:28;;;;;;;46.72;16.00;;;-2.30;87.00;;;;;;5025294;28;20254;-71
2022/12/12 03:22:02;;;;;;;49.03;19.10;;;-2.30;87.40;;;;;;4982854;28;20249;-71
2022/12/12 03:24:49;;;;;;;37.72;17.17;;;-2.40;87.70;;;;;;4979108;28;20203;-71
2022/12/12 03:27:31;;;;;;;42.50;18.90;;;-2.30;88.10;;;;;;4984816;28;20330;-73
2022/12/12 03:30:02;;;;;;;45.70;19.20;;;-2.30;88.40;;;;;;4989764;28;20265;-71
2022/12/12 03:32:54;;;;;;;40.72;16.98;;;-2.30;88.60;;;;;;4984942;28;20218;-72
2022/12/12 03:35:26;;;;;;;45.35;18.20;;;-2.40;88.60;;;;;;4989406;28;20294;-74
2022/12/12 03:38:05;;;;;;;44.78;16.52;;;-2.40;88.70;;;;;;4984913;28;20199;-70
2022/12/12 03:40:39;;;;;;;47.45;18.60;;;-2.40;88.70;;;;;;4978040;28;20238;-71
2022/12/12 03:43:13;;;;;;;45.00;18.25;;;-2.40;89.20;;;;;;4979748;28;20191;-72
2022/12/12 03:45:47;;;;;;;44.65;19.30;;;-2.40;89.20;;;;;;4980999;28;20669;-71
2022/12/12 03:48:22;;;;;;;42.05;18.02;;;-2.50;88.90;;;;;;4976078;28;20223;-74
2022/12/12 03:50:52;;;;;;;46.33;17.73;;;-2.50;88.90;;;;;;4986344;28;20224;-71
2022/12/12 03:53:25;;;;;;;45.60;19.70;;;-2.40;88.90;;;;;;4976167;28;20726;-72
2022/12/12 03:55:56;;;;;;;44.78;17.95;;;-2.50;88.90;;;;;;4979686;28;20661;-72
2022/12/12 03:58:40;;;;;;;44.58;18.70;;;-2.60;88.90;;;;;;5024326;28;20573;-71
2022/12/12 04:01:09;;;;;;;43.35;17.52;;;-2.70;88.90;;;;;;5029674;28;20679;-74
2022/12/12 04:03:44;;;;;;;46.80;19.05;;;-2.70;89.00;;;;;;5024200;28;20189;-72
2022/12/12 04:06:35;;;;;;;46.92;18.77;;;-2.70;89.30;;;;;;5024532;28;20200;-74
2022/12/12 04:15:20;;;;;;;57.42;20.38;;;-2.60;89.60;;;;;;5024292;28;20212;-72
2022/12/12 04:18:07;;;;;;;45.92;19.08;;;-2.60;89.70;;;;;;5019441;28;20192;-71
2022/12/12 04:23:38;;;;;;;44.50;18.27;;;-2.60;89.70;;;;;;5028646;28;20195;-73
2022/12/12 04:29:16;;;;;;;44.25;17.65;;;-2.40;90.00;;;;;;5027577;28;20189;-74
2022/12/12 04:32:02;;;;;;;52.25;18.77;;;-2.40;89.50;;;;;;5024416;28;20237;-72
2022/12/12 04:34:31;;;;;;;44.70;18.27;;;-2.50;88.90;;;;;;5032529;28;20174;-72
2022/12/12 04:36:56;;;;;;;47.38;18.98;;;-2.50;88.90;;;;;;5027332;28;20197;-72
2022/12/12 04:39:24;;;;;;;40.87;17.43;;;-2.50;88.90;;;;;;5021845;28;20201;-72
2022/12/12 04:41:51;;;;;;;49.35;19.70;;;-2.60;89.00;;;;;;5027941;28;20421;-71
2022/12/12 04:44:20;;;;;;;52.40;19.65;;;-2.50;88.90;;;;;;5030069;28;20659;-71
2022/12/12 04:46:49;;;;;;;48.63;19.77;;;-2.50;88.90;;;;;;5031031;28;20223;-71
2022/12/12 04:49:19;;;;;;;46.10;20.55;;;-2.60;88.70;;;;;;5024987;28;20983;-73
2022/12/12 04:51:50;;;;;;;41.45;17.92;;;-2.60;89.00;;;;;;5029857;28;20213;-72
2022/12/12 04:54:38;;;;;;;48.20;19.60;;;-2.60;89.20;;;;;;5027071;28;20185;-73
2022/12/12 04:57:07;;;;;;;49.70;18.73;;;-2.60;89.00;;;;;;5024127;28;20181;-71
2022/12/12 04:59:34;;;;;;;54.38;21.05;;;-2.50;89.20;;;;;;5022550;28;20201;-74
2022/12/12 05:02:08;;;;;;;44.90;16.60;;;-2.60;89.00;;;;;;5027406;28;20197;-71
2022/12/12 05:04:59;;;;;;;48.45;20.15;;;-2.50;89.00;;;;;;5022168;28;20188;-71
2022/12/12 05:07:35;;;;;;;52.95;20.50;;;-2.50;88.90;;;;;;5019227;28;20251;-73
2022/12/12 05:10:01;;;;;;;52.00;21.08;;;-2.50;88.40;;;;;;5020851;28;20676;-71
2022/12/12 05:12:27;;;;;;;41.13;18.30;;;-2.50;88.40;;;;;;5021945;28;20209;-73
2022/12/12 05:14:52;;;;;;;50.03;19.57;;;-2.50;88.40;;;;;;5026087;28;20185;-75
2022/12/12 05:17:29;;;;;;;50.20;20.37;;;-2.40;88.60;;;;;;5026435;28;20444;-72
2022/12/12 05:19:55;;;;;;;55.50;21.83;;;-2.50;88.30;;;;;;5023636;28;20213;-73
2022/12/12 05:22:21;;;;;;;49.50;21.00;;;-2.40;88.30;;;;;;5021994;28;20228;-74
2022/12/12 05:24:46;;;;;;;56.93;21.83;;;-2.30;88.30;;;;;;5024998;28;20221;-71
2022/12/12 05:27:12;;;;;;;52.77;21.77;;;-2.20;88.10;;;;;;5032317;28;20185;-71
2022/12/12 05:29:38;;;;;;;53.43;22.70;;;-2.20;87.80;;;;;;5026895;28;20220;-76
2022/12/12 05:32:03;;;;;;;51.50;22.40;;;-2.10;87.80;;;;;;5029848;28;20213;-70
2022/12/12 05:34:29;;;;;;;51.57;22.70;;;-2.00;87.60;;;;;;5029487;28;20424;-72
2022/12/12 05:36:54;;;;;;;51.30;22.47;;;-1.90;87.30;;;;;;5026053;28;20186;-73
2022/12/12 05:39:21;;;;;;;56.43;22.33;;;-1.90;87.10;;;;;;5025457;28;20254;-75
2022/12/12 05:41:47;;;;;;;62.80;23.58;;;-1.90;86.90;;;;;;5026567;28;20328;-74
2022/12/12 05:44:13;;;;;;;58.17;23.10;;;-1.90;86.90;;;;;;5025371;28;20277;-72
2022/12/12 05:46:38;;;;;;;52.90;22.33;;;-1.90;86.90;;;;;;5028992;28;20660;-72
2022/12/12 05:49:04;;;;;;;55.13;23.50;;;-1.90;86.90;;;;;;5032826;28;20189;-71
2022/12/12 05:51:30;;;;;;;51.28;20.45;;;-1.90;86.80;;;;;;5031140;28;20197;-72
2022/12/12 05:53:55;;;;;;;50.17;22.47;;;-1.90;86.80;;;;;;5028451;28;20674;-73
2022/12/12 05:56:21;;;;;;;49.73;21.57;;;-1.80;86.60;;;;;;5029325;28;20181;-71
2022/12/12 05:58:47;;;;;;;49.10;20.60;;;-1.80;86.00;;;;;;5023228;28;20178;-72
2022/12/12 06:01:12;;;;;;;58.10;21.17;;;-1.80;85.90;;;;;;5027159;28;20685;-72
2022/12/12 06:03:38;;;;;;;43.00;20.57;;;-1.70;85.90;;;;;;5029701;28;20203;-73
2022/12/12 06:06:03;;;;;;;58.43;23.20;;;-1.70;85.30;;;;;;5018920;28;20225;-75
2022/12/12 06:08:29;;;;;;;49.30;21.47;;;-1.80;85.20;;;;;;5026348;28;20192;-74
2022/12/12 06:10:55;;;;;;;55.87;21.73;;;-1.80;85.20;;;;;;5015667;28;20643;-73
2022/12/12 06:13:20;;;;;;;51.17;21.90;;;-1.80;85.50;;;;;;5021651;28;20186;-74
2022/12/12 06:15:46;;;;;;;51.80;22.20;;;-1.90;85.60;;;;;;5026614;28;20828;-75
2022/12/12 06:18:12;;;;;;;58.97;22.10;;;-1.80;85.60;;;;;;5018296;28;20247;-77
2022/12/12 06:20:37;;;;;;;49.47;22.00;;;-1.80;85.50;;;;;;5019287;28;20306;-73
2022/12/12 06:23:03;;;;;;;51.17;21.10;;;-1.80;85.60;;;;;;5020993;28;20210;-76
2022/12/12 06:25:29;;;;;;;54.93;22.83;;;-1.70;85.60;;;;;;5029834;28;20239;-75
2022/12/12 06:27:54;;;;;;;54.23;21.40;;;-1.60;85.50;;;;;;5033257;28;20181;-75
2022/12/12 06:30:20;;;;;;;46.73;21.03;;;-1.70;85.20;;;;;;5027937;28;20208;-76
2022/12/12 06:32:45;;;;;;;54.57;23.80;;;-1.70;85.00;;;;;;5026086;28;20182;-75
2022/12/12 06:35:11;;;;;;;56.67;22.30;;;-1.80;85.00;;;;;;5033477;28;20185;-75
2022/12/12 06:37:39;;;;;;;53.17;22.37;;;-1.90;84.90;;;;;;5026532;28;20296;-75
2022/12/12 06:40:05;;;;;;;54.20;22.52;;;-2.00;84.90;;;;;;5027446;28;20559;-72
2022/12/12 06:42:30;;;;;;;48.55;21.90;;;-1.90;85.20;;;;;;5026112;28;20185;-73
2022/12/12 06:44:56;;;;;;;57.77;23.00;;;-1.90;85.00;;;;;;5030235;28;20203;-75
2022/12/12 06:47:23;;;;;;;48.97;21.63;;;-1.90;85.20;;;;;;5028454;28;20838;-74
2022/12/12 06:49:48;;;;;;;48.40;22.10;;;-1.90;85.00;;;;;;5028310;28;20237;-76
2022/12/12 06:52:14;;;;;;;48.00;20.43;;;-1.90;85.50;;;;;;5019292;28;20255;-76
2022/12/12 06:54:39;;;;;;;58.43;23.17;;;-1.70;85.30;;;;;;5024046;28;20572;-74
2022/12/12 06:57:05;;;;;;;53.40;22.33;;;-1.80;84.30;;;;;;5027188;28;20181;-74
2022/12/12 06:59:31;;;;;;;50.60;22.77;;;-1.80;84.40;;;;;;5024736;28;20242;-75
2022/12/12 07:01:57;;;;;;;51.77;21.67;;;-1.90;84.70;;;;;;5029048;28;20189;-73
2022/12/12 07:04:24;;;;;;;49.72;22.58;;;-1.80;84.70;;;;;;5025736;28;20185;-73
2022/12/12 07:06:50;;;;;;;55.05;22.30;;;-1.80;84.70;;;;;;5025244;28;20264;-75
2022/12/12 07:09:16;;;;;;;52.38;20.80;;;-1.80;84.60;;;;;;5020041;28;20209;-75
2022/12/12 07:11:42;;;;;;;55.63;21.77;;;-1.70;84.60;;;;;;5025972;28;20197;-75
2022/12/12 07:14:08;;;;;;;51.63;23.00;;;-1.70;84.40;;;;;;5026851;28;20212;-74
2022/12/12 07:16:34;;;;;;;47.53;20.58;;;-1.70;84.30;;;;;;5021173;28;20239;-74
2022/12/12 07:19:00;;;;;;;51.93;22.17;;;-1.70;84.30;;;;;;5022050;28;20194;-72
2022/12/12 07:21:25;;;;;;;47.33;21.20;;;-1.70;84.10;;;;;;5022228;28;20673;-75
2022/12/12 07:23:51;;;;;;;50.57;23.00;;;-1.70;84.00;;;;;;5024651;28;20259;-73
2022/12/12 07:26:19;;;;;;;50.33;22.90;;;-1.60;84.00;;;;;;5021529;28;20656;-75
2022/12/12 07:28:46;;;;;;;47.85;21.80;;;-1.70;83.60;;;;;;5028573;28;20910;-74
2022/12/12 07:31:14;;;;;;;51.97;22.25;;;-1.80;83.60;;;;;;5027979;28;20240;-74
2022/12/12 07:33:40;;;;;;;55.30;22.98;;;-1.90;83.70;;;;;;5025345;28;20174;-75
2022/12/12 07:36:06;;;;;;;57.60;23.10;;;-2.00;83.70;;;;;;5039046;28;20192;-74
2022/12/12 07:38:32;;;;;;;58.80;22.42;;;-2.10;84.10;;;;;;5030915;28;20919;-74
2022/12/12 07:41:13;;;;;;;56.83;21.83;;;-2.10;84.70;;;;;;5028319;28;20214;-76
2022/12/12 07:43:41;;;;;;;59.90;24.25;;;-2.00;85.00;;;;;;5024239;28;20203;-73
2022/12/12 07:46:08;;;;;;;46.28;20.52;;;-2.10;84.70;;;;;;5032822;28;20195;-76
2022/12/12 07:48:34;;;;;;;51.33;22.13;;;-2.20;84.90;;;;;;5026998;28;20726;-74
2022/12/12 07:51:00;;;;;;;52.95;21.23;;;-2.20;85.20;;;;;;5030841;28;20226;-74
2022/12/12 07:53:26;;;;;;;55.03;22.38;;;-2.10;85.30;;;;;;5028970;28;20215;-75
2022/12/12 07:55:52;;;;;;;46.47;21.25;;;-2.10;85.30;;;;;;5024043;28;20182;-74
2022/12/12 07:58:18;;;;;;;47.37;21.20;;;-2.10;85.50;;;;;;5019217;28;20200;-72
2022/12/12 08:00:43;;;;;;;50.77;21.63;;;-2.10;84.90;;;;;;5026504;28;20677;-74
2022/12/12 08:03:09;;;;;;;56.30;21.97;;;-2.10;84.90;;;;;;5025508;28;20193;-72
2022/12/12 08:05:39;;;;;;;58.80;22.83;;;-2.00;85.20;;;;;;5025613;28;20185;-73
2022/12/12 08:08:05;;;;;;;51.55;22.13;;;-2.00;85.00;;;;;;5026054;28;20750;-76
2022/12/12 08:10:30;;;;;;;45.30;20.20;;;-2.00;84.60;;;;;;5027529;28;20208;-74
2022/12/12 08:12:56;;;;;;;50.90;20.63;;;-2.00;84.40;;;;;;5014186;28;20310;-76
2022/12/12 08:15:21;;;;;;;49.90;23.00;;;-2.00;84.70;;;;;;5020725;28;20194;-75
2022/12/12 08:17:47;;;;;;;45.00;20.20;;;-2.00;84.70;;;;;;5020052;28;20186;-76
2022/12/12 08:20:12;;;;;;;54.43;22.30;;;-2.00;84.70;;;;;;5023073;28;20995;-74
2022/12/12 08:22:38;;;;;;;46.63;21.33;;;-1.90;84.90;;;;;;5019436;28;20278;-76
2022/12/12 08:25:04;;;;;;;45.33;20.27;;;-1.90;84.90;;;;;;5025143;28;20197;-74
2022/12/12 08:27:29;;;;;;;59.85;21.85;;;-1.90;84.70;;;;;;5020938;28;20197;-75
2022/12/12 08:29:55;;;;;;;47.10;19.93;;;-1.90;84.60;;;;;;5019878;28;20217;-75
2022/12/12 08:32:21;;;;;;;50.83;22.73;;;-1.70;84.70;;;;;;5026342;28;20215;-76
2022/12/12 08:34:47;;;;;;;50.03;21.97;;;-1.70;84.40;;;;;;5022213;28;20174;-75
2022/12/12 08:37:13;;;;;;;43.93;22.27;;;-1.60;84.00;;;;;;5027701;28;20181;-75
2022/12/12 08:39:38;;;;;;;55.70;22.77;;;-1.60;83.80;;;;;;5025592;28;20208;-76
2022/12/12 08:42:04;;;;;;;43.67;21.57;;;-1.60;83.70;;;;;;5013732;28;20495;-75
2022/12/12 08:44:30;;;;;;;49.90;20.03;;;-1.60;83.60;;;;;;5024755;28;20185;-77
2022/12/12 08:46:55;;;;;;;46.70;20.57;;;-1.50;83.40;;;;;;5016081;28;20200;-75
2022/12/12 08:49:21;;;;;;;46.97;21.00;;;-1.50;83.00;;;;;;5017535;28;20267;-75
2022/12/12 08:51:46;;;;;;;50.20;21.90;;;-1.40;83.00;;;;;;5028666;28;20209;-75
2022/12/12 08:54:12;;;;;;;45.27;20.03;;;-1.30;82.50;;;;;;5026914;28;20185;-73
2022/12/12 08:56:39;;;;;;;44.42;21.08;;;-1.30;82.20;;;;;;5025507;28;20888;-74
2022/12/12 08:59:05;;;;;;;47.00;19.67;;;-1.30;81.80;;;;;;5025715;28;20220;-74
2022/12/12 09:01:30;;;;;;;46.57;19.60;;;-1.20;81.90;;;;;;5021816;28;20217;-76
2022/12/12 09:03:56;;;;;;;38.70;19.40;;;-1.20;81.50;;;;;;5023791;28;20435;-76
2022/12/12 09:06:24;;;;;;;46.20;18.80;;;-1.30;81.20;;;;;;5027234;28;20235;-73
2022/12/12 09:08:50;;;;;;;48.05;20.52;;;-1.30;81.70;;;;;;5027773;28;20177;-74
2022/12/12 09:11:17;;;;;;;45.37;20.07;;;-1.30;81.70;;;;;;5024928;28;20224;-71
2022/12/12 09:13:43;;;;;;;39.50;19.33;;;-1.40;81.80;;;;;;5027061;28;20420;-71
2022/12/12 09:16:10;;;;;;;45.80;22.20;;;-1.40;82.10;;;;;;5029589;28;20721;-72
2022/12/12 09:18:37;;;;;;;46.83;19.40;;;-1.30;82.20;;;;;;5030041;28;20703;-74
2022/12/12 09:21:03;;;;;;;44.97;18.88;;;-1.30;81.90;;;;;;5019475;28;20205;-72
2022/12/12 09:23:29;;;;;;;53.43;20.20;;;-1.20;81.80;;;;;;5028683;28;20557;-70
2022/12/12 09:25:55;;;;;;;41.53;19.45;;;-1.10;81.90;;;;;;5030369;28;20771;-72
2022/12/12 09:28:23;;;;;;;41.30;19.60;;;-1.00;81.70;;;;;;5033758;28;20263;-73
2022/12/12 09:30:49;;;;;;;43.30;19.75;;;-0.90;81.50;;;;;;5032077;28;20992;-70
2022/12/12 09:33:16;;;;;;;44.50;19.33;;;-0.70;80.80;;;;;;5031395;28;20189;-72
2022/12/12 09:35:42;;;;;;;40.08;19.38;;;-0.80;79.70;;;;;;5031619;28;20827;-72
2022/12/12 09:38:08;;;;;;;40.50;18.37;;;-0.90;79.70;;;;;;5029941;28;20189;-72
2022/12/12 09:40:43;;;;;;;35.90;17.88;;;-0.80;80.00;;;;;;5030102;28;20486;-71
2022/12/12 09:43:14;;;;;;;38.28;17.45;;;-0.80;79.90;;;;;;5028326;28;20264;-70
2022/12/12 09:45:41;;;;;;;44.42;19.13;;;-0.70;79.60;;;;;;5031551;28;20173;-72
2022/12/12 09:48:07;;;;;;;41.22;18.90;;;-0.70;79.50;;;;;;5031099;28;20193;-71
2022/12/12 09:50:37;;;;;;;45.37;20.43;;;-0.60;79.30;;;;;;5030715;28;20228;-73
2022/12/12 09:53:06;;;;;;;43.50;18.35;;;-0.60;79.30;;;;;;5027554;28;20877;-73
2022/12/12 09:55:37;;;;;;;44.20;19.10;;;-0.50;79.00;;;;;;5017906;28;20612;-74
2022/12/12 09:58:34;;;;;;;48.03;20.30;;;-0.40;79.30;;;;;;5026883;28;20224;-75
2022/12/12 10:01:35;;;;;;;41.30;18.88;;;-0.30;78.70;;;;;;5027514;28;20719;-73
2022/12/12 10:04:09;;;;;;;40.40;18.45;;;-0.30;78.60;;;;;;4976877;28;20214;-74
2022/12/12 10:06:45;;;;;;;36.50;17.23;;;-0.10;78.40;;;;;;5022984;28;20183;-73
2022/12/12 10:09:35;;;;;;;45.03;19.35;;;0.00;77.80;;;;;;5035166;28;20181;-74
2022/12/12 10:12:04;;;;;;;47.50;20.63;;;0.00;77.40;;;;;;5029866;28;20209;-73
2022/12/12 10:14:51;;;;;;;41.30;18.85;;;0.00;77.80;;;;;;5032749;28;20180;-73
2022/12/12 10:17:32;;;;;;;45.17;19.73;;;0.10;77.40;;;;;;5032883;28;20217;-74
2022/12/12 10:20:15;;;;;;;44.58;21.05;;;0.00;77.10;;;;;;5036478;28;20247;-73
2022/12/12 10:22:48;;;;;;;43.10;19.05;;;-0.10;77.60;;;;;;5033118;28;20181;-73
2022/12/12 10:25:45;;;;;;;36.45;17.88;;;0.00;78.00;;;;;;5041457;28;20193;-74
2022/12/12 10:28:15;;;;;;;33.35;16.30;;;0.10;77.30;;;;;;5034744;28;20193;-75
2022/12/12 10:31:01;;;;;;;36.33;17.33;;;0.00;76.20;;;;;;5036272;28;20221;-74
2022/12/12 10:33:52;;;;;;;43.88;18.15;;;0.00;76.70;;;;;;4989385;28;20190;-75
2022/12/12 10:36:21;;;;;;;35.47;17.83;;;0.10;77.00;;;;;;5037303;28;20201;-76
2022/12/12 10:38:55;;;;;;;40.70;17.52;;;0.00;76.40;;;;;;5032898;28;20190;-75
2022/12/12 10:41:38;;;;;;;38.15;17.00;;;0.00;76.70;;;;;;5043887;28;20219;-75
2022/12/12 10:44:11;;;;;;;43.28;18.23;;;-0.10;76.70;;;;;;5038551;28;20607;-74
2022/12/12 10:46:46;;;;;;;41.55;18.35;;;-0.10;77.00;;;;;;5022917;28;20213;-76
2022/12/12 10:49:15;;;;;;;41.70;18.50;;;0.00;77.40;;;;;;5024440;28;20181;-76
2022/12/12 10:51:43;;;;;;;38.10;18.40;;;0.10;77.30;;;;;;5023416;28;20275;-76
2022/12/12 10:54:18;;;;;;;40.20;18.23;;;0.10;77.30;;;;;;5024450;28;20202;-76
2022/12/12 10:57:02;;;;;;;48.25;20.08;;;0.10;77.40;;;;;;5026490;28;20177;-76
2022/12/12 10:59:27;;;;;;;48.72;20.15;;;0.10;77.10;;;;;;5025339;28;20201;-75
2022/12/12 11:01:58;;;;;;;37.97;18.33;;;0.10;77.10;;;;;;5022333;28;20220;-75
2022/12/12 11:04:26;;;;;;;41.83;18.13;;;0.00;77.40;;;;;;5026336;28;20985;-75
2022/12/12 11:06:54;;;;;;;41.15;18.63;;;0.00;77.70;;;;;;5021596;28;20182;-75
2022/12/12 11:09:21;;;;;;;40.78;17.83;;;0.00;77.70;;;;;;5023741;28;20271;-76
2022/12/12 11:12:14;;;;;;;40.33;18.35;;;0.00;77.70;;;;;;5026425;28;20201;-74
2022/12/12 11:14:51;;;;;;;38.15;18.10;;;0.10;77.80;;;;;;5022005;28;20276;-75
2022/12/12 11:17:25;;;;;;;35.22;16.60;;;0.10;77.70;;;;;;5023780;28;20182;-78
2022/12/12 11:19:53;;;;;;;46.13;18.05;;;0.20;77.30;;;;;;5030444;28;20287;-77
2022/12/12 11:22:20;;;;;;;40.67;17.92;;;0.20;76.70;;;;;;5030242;28;20213;-84
2022/12/12 11:24:48;;;;;;;39.88;17.10;;;0.20;76.40;;;;;;5034308;28;20247;-77
2022/12/12 11:27:30;;;;;;;36.08;17.00;;;0.20;76.40;;;;;;5023431;28;20277;-78
2022/12/12 11:30:01;;;;;;;36.70;15.68;;;0.30;76.10;;;;;;5026879;28;20219;-74
2022/12/12 11:32:46;;;;;;;34.78;15.65;;;0.30;75.70;;;;;;5025047;28;20216;-77
2022/12/12 11:35:26;;;;;;;26.70;12.98;;;0.30;75.20;;;;;;5023541;28;20233;-77
2022/12/12 11:38:00;;;;;;;31.40;13.32;;;0.30;74.60;;;;;;5021475;28;20182;-75
2022/12/12 11:40:32;;;;;;;29.75;13.27;;;0.30;73.60;;;;;;5022027;28;20241;-74
2022/12/12 11:43:21;;;;;;;24.33;11.82;;;0.30;73.70;;;;;;5028787;28;20709;-74
2022/12/12 11:46:06;;;;;;;28.23;12.02;;;0.40;73.30;;;;;;5018410;28;20186;-78
2022/12/12 11:48:41;;;;;;;29.83;14.38;;;0.50;72.90;;;;;;5027205;28;20647;-79
2022/12/12 11:51:06;;;;;;;34.72;14.18;;;0.40;72.90;;;;;;5027829;28;20765;-79
2022/12/12 11:53:38;;;;;;;34.03;13.90;;;0.50;73.20;;;;;;5027106;28;20193;-77
2022/12/12 11:56:20;;;;;;;26.67;11.95;;;0.60;73.20;;;;;;5030097;28;20711;-77
2022/12/12 11:59:07;;;;;;;26.02;12.90;;;0.60;73.90;;;;;;5017945;28;20194;-76
2022/12/12 12:02:09;;;;;;;34.63;13.30;;;0.60;73.60;;;;;;5026736;28;20206;-77
2022/12/12 12:04:35;;;;;;;30.05;12.52;;;0.70;73.90;;;;;;5018080;28;20185;-77
2022/12/12 12:07:29;;;;;;;26.60;11.70;;;0.90;73.70;;;;;;5021975;28;20243;-76
2022/12/12 12:10:37;;;;;;;24.73;11.35;;;0.90;73.20;;;;;;5020617;28;20217;-77
2022/12/12 12:13:42;;;;;;;27.10;12.07;;;0.80;72.70;;;;;;5020919;28;20216;-76
2022/12/12 12:16:16;;;;;;;26.13;11.73;;;0.90;73.20;;;;;;5017682;28;20650;-76
2022/12/12 12:18:56;;;;;;;27.90;11.95;;;1.00;72.70;;;;;;5021853;28;20193;-77
2022/12/12 12:21:50;;;;;;;25.35;10.95;;;1.10;72.10;;;;;;5023994;28;20192;-77
2022/12/12 12:24:27;;;;;;;26.35;9.77;;;1.20;71.70;;;;;;5013777;28;20897;-77
2022/12/12 12:27:05;;;;;;;27.85;11.30;;;1.20;71.10;;;;;;5024042;28;20188;-78
2022/12/12 12:29:50;;;;;;;22.02;11.05;;;1.20;71.00;;;;;;5020079;28;20283;-77
2022/12/12 12:32:47;;;;;;;21.98;11.02;;;1.20;71.30;;;;;;5036686;28;20220;-77
2022/12/12 12:35:38;;;;;;;32.33;10.25;;;1.30;71.70;;;;;;5027274;28;20241;-76
2022/12/12 12:38:21;;;;;;;23.08;11.27;;;1.50;71.70;;;;;;5023638;28;20213;-77
2022/12/12 12:41:00;;;;;;;23.60;11.30;;;1.80;71.00;;;;;;5017485;28;20209;-77
2022/12/12 12:43:35;;;;;;;29.50;14.10;;;2.00;70.40;;;;;;5020013;28;20216;-77
2022/12/12 12:46:24;;;;;;;35.88;14.93;;;2.20;70.70;;;;;;5021136;28;20276;-77
2022/12/12 12:49:17;;;;;;;39.55;17.25;;;2.30;70.80;;;;;;5018486;28;20219;-77
2022/12/12 12:52:18;;;;;;;34.75;16.25;;;2.30;71.00;;;;;;4992491;28;20267;-77
2022/12/12 12:54:48;;;;;;;27.85;14.60;;;2.30;71.10;;;;;;5017769;28;20185;-77
2022/12/12 12:57:16;;;;;;;41.13;14.97;;;2.50;71.00;;;;;;5025282;28;20190;-76
2022/12/12 12:59:49;;;;;;;35.40;13.63;;;2.60;70.40;;;;;;5017874;28;20464;-76
2022/12/12 13:02:34;;;;;;;24.88;13.20;;;2.60;68.80;;;;;;5025122;28;20254;-78
2022/12/12 13:05:17;;;;;;;32.25;13.00;;;2.50;68.60;;;;;;5014198;28;20189;-78